Time;durP1;ratioP1;P1;durP2;ratioP2;P2;SDS_P1;SDS_P2;PMS_P1;PMS_P2;Temp;Humidity;BMP_temperature;BMP_pressure;BME280_temperature;BME280_humidity;BME280_pressure;Samples;Min_cycle;Max_cycle;Signal;HPM_P1;HPM_P2
2021/12/21 00:01:25;;;;;;;6.13;4.47;;;;;;;4.02;57.53;99699.25;5090372;28;20270;-60
2021/12/21 00:03:52;;;;;;;7.33;4.80;;;;;;;4.02;57.16;99699.25;5090682;28;20191;-61
2021/12/21 00:06:19;;;;;;;5.10;4.53;;;;;;;4.08;57.06;99708.81;5090330;28;20676;-61
2021/12/21 00:08:47;;;;;;;4.77;4.10;;;;;;;4.08;56.60;99703.75;5090362;28;20188;-60
2021/12/21 00:11:14;;;;;;;5.73;4.37;;;;;;;4.11;56.15;99709.84;5090576;28;20719;-62
2021/12/21 00:16:44;;;;;;;4.73;4.10;;;;;;;4.22;56.50;99719.63;5073136;28;20345;-61
2021/12/21 00:19:26;;;;;;;5.33;4.23;;;;;;;4.22;56.06;99724.69;5090293;28;20203;-60
2021/12/21 00:21:58;;;;;;;8.43;4.50;;;;;;;4.22;54.91;99729.78;5090329;28;20199;-61
2021/12/21 00:24:32;;;;;;;4.60;4.00;;;;;;;4.08;54.60;99727.50;5090187;28;20286;-62
2021/12/21 00:27:00;;;;;;;5.83;4.53;;;;;;;4.09;55.32;99731.75;5090311;28;20230;-60
2021/12/21 00:29:27;;;;;;;5.77;4.60;;;;;;;4.07;55.12;99740.13;5090059;28;20192;-61
2021/12/21 00:31:54;;;;;;;5.67;5.07;;;;;;;4.10;55.34;99737.72;5090035;28;20233;-61
2021/12/21 00:34:22;;;;;;;5.67;4.37;;;;;;;4.07;54.93;99746.09;5090186;28;20638;-61
2021/12/21 00:36:49;;;;;;;5.93;4.33;;;;;;;4.03;55.41;99733.19;5090131;28;20661;-60
2021/12/21 00:39:16;;;;;;;6.20;4.90;;;;;;;4.01;54.84;99725.47;5089158;28;20436;-60
2021/12/21 00:41:44;;;;;;;6.30;4.43;;;;;;;4.08;55.05;99736.78;5090312;28;20443;-61
2021/12/21 00:44:11;;;;;;;5.63;4.07;;;;;;;4.03;54.49;99731.50;5090871;28;20678;-61
2021/12/21 00:46:39;;;;;;;6.13;4.90;;;;;;;4.01;55.14;99730.53;5108749;28;20922;-60
2021/12/21 00:49:14;;;;;;;4.80;4.00;;;;;;;4.04;55.13;99737.44;5110373;28;20682;-60
2021/12/21 00:51:42;;;;;;;4.43;3.73;;;;;;;3.94;54.69;99737.84;5110148;28;20342;-61
2021/12/21 00:54:10;;;;;;;5.43;3.77;;;;;;;3.85;54.66;99743.34;5110290;28;20195;-62
2021/12/21 00:56:37;;;;;;;5.30;4.70;;;;;;;3.86;55.11;99736.59;5110296;28;20190;-60
2021/12/21 00:59:05;;;;;;;4.50;4.00;;;;;;;3.86;53.63;99734.06;5110569;28;20281;-60
2021/12/21 01:01:34;;;;;;;5.17;3.73;;;;;;;3.85;54.18;99732.31;5110416;28;20183;-60
2021/12/21 01:04:03;;;;;;;4.37;3.67;;;;;;;3.83;54.30;99737.34;5110545;28;20252;-61
2021/12/21 01:06:38;;;;;;;3.83;3.30;;;;;;;3.84;53.91;99746.72;5110391;28;20686;-61
2021/12/21 01:09:11;;;;;;;5.20;3.50;;;;;;;3.86;54.18;99740.03;5110369;28;20220;-60
2021/12/21 01:11:42;;;;;;;4.90;3.97;;;;;;;3.89;53.79;99734.22;5109984;28;20214;-61
2021/12/21 01:14:39;;;;;;;4.17;3.50;;;;;;;3.88;53.60;99737.53;5110439;28;20296;-61
2021/12/21 01:17:11;;;;;;;5.37;4.43;;;;;;;4.00;53.58;99738.13;5112027;28;20493;-60
2021/12/21 01:19:42;;;;;;;5.50;4.00;;;;;;;4.10;52.62;99748.78;5113796;28;20565;-61
2021/12/21 01:22:16;;;;;;;3.53;3.20;;;;;;;4.12;52.44;99744.63;5113948;28;20190;-60
2021/12/21 01:25:06;;;;;;;4.70;3.60;;;;;;;4.10;52.80;99745.34;5113966;28;20285;-60
2021/12/21 01:27:42;;;;;;;3.40;3.10;;;;;;;4.10;52.95;99745.34;5114034;28;20196;-60
2021/12/21 01:30:18;;;;;;;4.83;3.50;;;;;;;4.14;52.55;99745.59;5113448;28;20190;-62
2021/12/21 01:32:59;;;;;;;4.27;3.50;;;;;;;4.15;52.32;99747.31;5113303;28;20264;-61
2021/12/21 01:35:31;;;;;;;6.37;3.57;;;;;;;4.12;51.30;99752.25;5113444;28;20190;-60
2021/12/21 01:38:04;;;;;;;3.85;3.45;;;;;;;4.12;51.53;99749.69;5112897;28;20522;-62
2021/12/21 01:40:42;;;;;;;3.50;3.20;;;;;;;4.07;51.73;99748.63;5113435;28;20191;-60
2021/12/21 01:43:19;;;;;;;3.80;3.40;;;;;;;4.01;51.09;99753.44;5112993;28;20187;-62
2021/12/21 01:51:18;;;;;;;2.80;2.60;;;;;;;3.96;51.07;99746.38;5112303;28;20295;-60
2021/12/21 01:53:47;;;;;;;3.30;3.00;;;;;;;3.99;50.51;99744.88;5111532;28;20284;-60
2021/12/21 01:56:15;;;;;;;5.10;3.13;;;;;;;3.96;50.54;99737.09;5112104;28;20190;-62
2021/12/21 01:58:43;;;;;;;3.70;2.80;;;;;;;3.94;49.68;99725.13;5112716;28;20209;-61
2021/12/21 02:01:17;;;;;;;4.77;3.07;;;;;;;3.99;49.95;99734.69;5113036;28;20239;-60
2021/12/21 02:03:47;;;;;;;4.37;3.23;;;;;;;4.00;50.20;99743.22;5113283;28;20216;-60
2021/12/21 02:06:15;;;;;;;3.57;3.20;;;;;;;3.85;50.21;99705.25;5112958;28;20187;-62
2021/12/21 02:08:43;;;;;;;3.73;2.73;;;;;;;3.97;51.04;99728.69;5112920;28;20281;-63
2021/12/21 02:11:10;;;;;;;2.90;2.63;;;;;;;3.96;51.69;99732.00;5112772;28;20224;-61
2021/12/21 02:13:38;;;;;;;3.70;2.87;;;;;;;3.96;51.60;99743.84;5112650;28;20190;-61
2021/12/21 02:16:06;;;;;;;2.90;2.70;;;;;;;3.96;52.38;99736.22;5113044;28;20298;-62
2021/12/21 02:18:47;;;;;;;3.07;2.67;;;;;;;3.95;52.52;99742.13;5112961;28;20197;-61
2021/12/21 02:21:25;;;;;;;3.80;2.97;;;;;;;4.01;52.17;99742.41;5112714;28;20677;-63
2021/12/21 02:23:56;;;;;;;5.17;2.90;;;;;;;3.98;52.82;99737.19;5112718;28;20186;-61
2021/12/21 02:26:42;;;;;;;4.03;3.27;;;;;;;3.98;52.28;99744.81;5112167;28;20229;-61
2021/12/21 02:29:16;;;;;;;3.57;3.03;;;;;;;4.00;52.15;99744.09;5112383;28;20196;-61
2021/12/21 02:31:46;;;;;;;3.73;2.93;;;;;;;3.98;51.67;99748.19;5112370;28;20646;-61
2021/12/21 02:34:14;;;;;;;4.63;3.20;;;;;;;4.00;52.20;99741.53;5098499;28;20222;-61
2021/12/21 02:36:44;;;;;;;3.53;3.17;;;;;;;4.05;51.72;99737.53;5097230;28;20744;-61
2021/12/21 02:39:12;;;;;;;3.03;2.73;;;;;;;4.08;51.79;99736.78;5112085;28;20671;-61
2021/12/21 02:41:40;;;;;;;3.60;3.30;;;;;;;4.07;51.91;99733.38;5112586;28;20197;-61
2021/12/21 02:44:07;;;;;;;3.72;3.38;;;;;;;4.09;51.26;99746.19;5111954;28;20550;-61
2021/12/21 02:46:38;;;;;;;3.83;3.10;;;;;;;4.12;52.26;99738.69;5112435;28;20186;-62
2021/12/21 02:49:05;;;;;;;3.47;3.17;;;;;;;4.10;52.28;99746.22;5112145;28;20251;-62
2021/12/21 02:51:32;;;;;;;5.00;3.50;;;;;;;4.11;52.86;99760.69;5111982;28;20214;-61
2021/12/21 02:54:00;;;;;;;3.90;3.50;;;;;;;4.05;52.95;99757.00;5112213;28;20247;-61
2021/12/21 02:56:27;;;;;;;4.70;3.47;;;;;;;4.09;53.45;99754.66;5111876;28;20205;-62
2021/12/21 02:58:54;;;;;;;3.33;2.90;;;;;;;4.10;53.65;99755.53;5112142;28;20213;-62
2021/12/21 03:01:21;;;;;;;4.13;3.17;;;;;;;4.13;54.14;99761.63;5111878;28;20546;-61
2021/12/21 03:03:48;;;;;;;6.57;3.40;;;;;;;4.09;54.15;99769.91;5111919;28;20687;-61
2021/12/21 03:06:40;;;;;;;5.23;3.30;;;;;;;4.08;53.75;99765.63;5111775;28;20197;-61
2021/12/21 03:09:14;;;;;;;3.30;3.00;;;;;;;4.12;54.33;99764.97;5111731;28;20239;-62
2021/12/21 03:11:55;;;;;;;3.90;3.30;;;;;;;4.10;53.63;99765.69;5111701;28;20213;-61
2021/12/21 03:14:23;;;;;;;3.78;3.47;;;;;;;4.17;54.08;99773.66;5111055;28;20449;-61
2021/12/21 03:16:49;;;;;;;4.83;3.73;;;;;;;4.32;52.92;99772.63;5111475;28;20285;-61
2021/12/21 03:19:16;;;;;;;6.43;3.60;;;;;;;4.33;53.40;99775.25;5091679;28;20203;-61
2021/12/21 03:21:43;;;;;;;6.00;3.90;;;;;;;4.35;53.68;99768.56;5091207;28;20195;-61
2021/12/21 03:24:12;;;;;;;3.50;3.20;;;;;;;4.35;53.77;99772.75;5090921;28;20193;-61
2021/12/21 03:26:39;;;;;;;3.67;3.20;;;;;;;4.37;53.67;99772.03;5090951;28;20190;-62
2021/12/21 03:29:07;;;;;;;3.80;3.50;;;;;;;4.35;53.56;99782.94;5090746;28;20290;-61
2021/12/21 03:31:34;;;;;;;7.03;3.47;;;;;;;4.30;53.21;99780.19;5090411;28;20227;-61
2021/12/21 03:34:02;;;;;;;4.23;3.83;;;;;;;4.13;53.15;99748.03;5091115;28;20191;-61
2021/12/21 03:36:29;;;;;;;5.40;4.20;;;;;;;4.33;53.38;99780.34;5089905;28;20434;-62
2021/12/21 03:39:00;;;;;;;4.33;3.80;;;;;;;4.42;53.03;99777.34;5090683;28;20187;-61
2021/12/21 03:41:29;;;;;;;5.50;3.90;;;;;;;4.34;52.30;99783.75;5090623;28;20282;-62
2021/12/21 03:43:59;;;;;;;5.33;4.17;;;;;;;4.37;52.67;99786.44;5091071;28;20232;-62
2021/12/21 03:46:27;;;;;;;4.23;3.83;;;;;;;4.30;52.86;99789.50;5090683;28;20215;-62
2021/12/21 03:48:53;;;;;;;6.80;3.57;;;;;;;4.31;52.48;99783.63;5090867;28;20281;-61
2021/12/21 03:51:21;;;;;;;4.30;3.90;;;;;;;4.25;53.60;99776.56;5090571;28;20198;-61
2021/12/21 03:53:50;;;;;;;6.83;4.10;;;;;;;4.25;52.97;99794.38;5090702;28;20573;-61
2021/12/21 03:56:38;;;;;;;6.00;4.33;;;;;;;4.19;53.46;99786.47;5090706;28;20282;-61
2021/12/21 03:59:07;;;;;;;4.80;3.73;;;;;;;4.25;53.23;99789.28;5090515;28;20195;-61
2021/12/21 04:01:34;;;;;;;5.60;4.23;;;;;;;4.13;53.54;99796.34;5090490;28;20237;-61
2021/12/21 04:04:01;;;;;;;4.77;3.63;;;;;;;4.11;53.37;99808.13;5090384;28;20661;-61
2021/12/21 04:06:28;;;;;;;4.30;3.77;;;;;;;4.07;53.39;99806.22;5090437;28;20278;-62
2021/12/21 04:08:55;;;;;;;5.17;4.37;;;;;;;3.98;54.10;99806.66;5090541;28;20195;-62
2021/12/21 04:11:22;;;;;;;4.00;3.60;;;;;;;3.98;53.79;99810.91;5090167;28;20205;-61
2021/12/21 04:13:49;;;;;;;4.47;4.07;;;;;;;4.01;54.07;99806.81;5090284;28;20193;-61
2021/12/21 04:16:18;;;;;;;4.47;4.03;;;;;;;4.00;54.03;99809.28;5090380;28;20582;-61
2021/12/21 04:18:45;;;;;;;5.60;4.60;;;;;;;3.93;54.34;99817.41;5089969;28;20187;-60
2021/12/21 04:21:13;;;;;;;4.20;3.83;;;;;;;3.80;55.05;99810.88;5090244;28;20246;-61
2021/12/21 04:23:41;;;;;;;7.13;4.30;;;;;;;3.85;54.88;99818.72;5090260;28;20201;-61
2021/12/21 04:26:08;;;;;;;7.57;4.27;;;;;;;3.78;55.29;99822.66;5090031;28;20195;-59
2021/12/21 04:28:35;;;;;;;4.40;4.00;;;;;;;3.78;54.86;99820.13;5090073;28;20190;-60
2021/12/21 04:31:03;;;;;;;4.63;4.23;;;;;;;3.76;55.49;99833.56;5090086;28;20202;-60
2021/12/21 04:33:32;;;;;;;4.93;4.30;;;;;;;3.71;55.37;99829.91;5089842;28;20314;-61
2021/12/21 04:36:00;;;;;;;5.53;4.10;;;;;;;3.70;55.27;99829.03;5090315;28;20191;-61
2021/12/21 04:38:32;;;;;;;4.97;4.30;;;;;;;3.62;56.00;99826.94;5090025;28;20299;-61
2021/12/21 04:41:05;;;;;;;5.40;4.30;;;;;;;3.70;55.92;99833.25;5089616;28;20686;-61
2021/12/21 04:43:33;;;;;;;5.37;4.70;;;;;;;3.67;55.91;99831.44;5104599;28;20234;-61
2021/12/21 04:46:00;;;;;;;5.50;4.40;;;;;;;3.64;56.47;99831.28;5095472;28;20289;-61
2021/12/21 04:48:27;;;;;;;4.73;4.07;;;;;;;3.66;55.75;99829.69;5090161;28;20202;-61
2021/12/21 04:50:56;;;;;;;4.63;4.13;;;;;;;3.60;56.12;99836.16;5091323;28;20281;-61
2021/12/21 04:53:23;;;;;;;5.10;4.60;;;;;;;3.62;56.19;99843.03;5100106;28;20218;-61
2021/12/21 04:55:51;;;;;;;6.50;4.60;;;;;;;3.57;56.35;99850.41;5114224;28;20200;-62
2021/12/21 04:58:18;;;;;;;5.83;4.30;;;;;;;3.62;55.74;99844.72;5114269;28;20190;-61
2021/12/21 05:00:45;;;;;;;4.37;3.97;;;;;;;3.62;55.10;99848.13;5114199;28;20644;-61
2021/12/21 05:03:12;;;;;;;7.03;4.23;;;;;;;3.62;55.05;99852.31;5114349;28;20608;-61
2021/12/21 05:05:39;;;;;;;5.77;4.87;;;;;;;3.46;55.27;99823.63;5114335;28;20182;-61
2021/12/21 05:08:10;;;;;;;4.10;3.70;;;;;;;3.65;55.22;99858.44;5114324;28;20175;-61
2021/12/21 05:10:45;;;;;;;4.47;4.03;;;;;;;3.73;54.98;99863.88;5113923;28;20229;-61
2021/12/21 05:13:12;;;;;;;4.17;3.77;;;;;;;3.75;55.14;99869.91;5114242;28;20630;-62
2021/12/21 05:15:39;;;;;;;5.40;4.33;;;;;;;3.33;54.84;99789.94;5114213;28;20197;-61
2021/12/21 05:18:06;;;;;;;6.10;4.20;;;;;;;3.76;54.86;99881.84;5113671;28;20225;-62
2021/12/21 05:20:34;;;;;;;5.47;3.70;;;;;;;3.80;55.05;99876.97;5113876;28;20190;-62
2021/12/21 05:23:01;;;;;;;5.00;3.90;;;;;;;3.86;54.86;99884.00;5114081;28;21112;-61
2021/12/21 05:25:29;;;;;;;8.37;3.60;;;;;;;3.86;54.50;99887.44;5101462;28;20238;-60
2021/12/21 05:27:56;;;;;;;3.90;3.50;;;;;;;3.70;54.34;99863.75;5093761;28;20195;-61
2021/12/21 05:30:23;;;;;;;4.40;3.47;;;;;;;3.98;54.26;99893.09;5094384;28;20725;-61
2021/12/21 05:32:50;;;;;;;3.70;3.40;;;;;;;3.96;53.89;99899.78;5105876;28;20289;-61
2021/12/21 05:35:18;;;;;;;5.38;4.20;;;;;;;3.99;54.14;99891.44;5093341;28;20540;-60
2021/12/21 05:37:47;;;;;;;4.73;3.93;;;;;;;4.11;53.64;99900.53;5104898;28;20289;-61
2021/12/21 05:40:16;;;;;;;3.77;3.47;;;;;;;4.09;53.30;99904.66;5093070;28;20190;-61
2021/12/21 05:42:49;;;;;;;5.70;4.55;;;;;;;4.15;53.30;99902.41;5097560;28;20437;-60
2021/12/21 05:45:18;;;;;;;4.40;4.00;;;;;;;4.17;53.50;99913.50;5111629;28;20285;-61
2021/12/21 05:47:45;;;;;;;4.33;3.87;;;;;;;4.12;53.13;99911.56;5113209;28;20194;-61
2021/12/21 05:50:16;;;;;;;5.37;4.60;;;;;;;4.18;53.20;99911.84;5112788;28;20197;-61
2021/12/21 05:52:44;;;;;;;8.47;3.90;;;;;;;4.13;53.38;99913.31;5112983;28;20725;-61
2021/12/21 05:55:12;;;;;;;5.87;4.53;;;;;;;4.16;53.64;99914.34;5113223;28;20277;-62
2021/12/21 05:57:39;;;;;;;6.33;3.87;;;;;;;4.16;53.26;99914.34;5113359;28;20194;-61
2021/12/21 06:00:11;;;;;;;4.50;4.03;;;;;;;4.11;52.66;99917.44;5113159;28;20294;-63
2021/12/21 06:02:38;;;;;;;5.22;4.10;;;;;;;4.18;52.95;99915.28;5112131;28;20435;-60
2021/12/21 06:05:06;;;;;;;3.70;3.40;;;;;;;4.23;52.32;99918.03;5112705;28;20187;-61
2021/12/21 06:07:33;;;;;;;4.83;3.67;;;;;;;4.19;51.77;99923.78;5105585;28;20245;-61
2021/12/21 06:10:07;;;;;;;3.23;2.93;;;;;;;4.16;52.27;99932.13;5092245;28;20194;-61
2021/12/21 06:12:53;;;;;;;4.33;3.90;;;;;;;4.14;52.85;99932.84;5092294;28;20306;-61
2021/12/21 06:15:30;;;;;;;3.97;3.33;;;;;;;4.10;52.86;99934.38;5091846;28;20230;-61
2021/12/21 06:23:56;;;;;;;5.00;3.80;;;;;;;4.08;52.82;99948.69;5071920;28;20198;-60
2021/12/21 06:26:22;;;;;;;6.87;3.93;;;;;;;4.11;52.99;99951.38;5071760;28;21111;-60
2021/12/21 06:28:49;;;;;;;7.20;5.17;;;;;;;4.14;53.26;99949.00;5072061;28;20357;-61
2021/12/21 06:31:18;;;;;;;12.40;4.97;;;;;;;4.23;52.81;99965.50;5071801;28;20231;-61
2021/12/21 06:33:45;;;;;;;6.47;4.40;;;;;;;4.18;51.61;99939.81;5071312;28;20721;-61
2021/12/21 06:36:12;;;;;;;5.97;3.97;;;;;;;4.15;51.83;99938.00;5071502;28;20274;-62
2021/12/21 06:38:39;;;;;;;6.43;4.63;;;;;;;4.26;51.57;99970.72;5071273;28;20227;-62
2021/12/21 06:41:07;;;;;;;6.87;4.30;;;;;;;4.34;51.04;99971.97;5071008;28;20282;-56
2021/12/21 06:43:34;;;;;;;5.27;4.00;;;;;;;4.29;50.50;99969.19;5070896;28;20198;-57
2021/12/21 06:46:07;;;;;;;8.07;4.50;;;;;;;4.26;50.45;99958.00;5071161;28;20192;-56
2021/12/21 06:51:26;;;;;;;4.73;4.10;;;;;;;4.56;49.17;99979.84;5071004;28;20200;-56
2021/12/21 06:53:56;;;;;;;5.77;4.17;;;;;;;4.56;49.30;99978.13;5071093;28;20668;-56
2021/12/21 06:56:25;;;;;;;5.07;4.50;;;;;;;4.48;49.59;99979.44;5070897;28;20348;-56
2021/12/21 06:58:55;;;;;;;6.17;3.90;;;;;;;4.60;49.43;99995.31;5071028;28;20204;-57
2021/12/21 07:01:22;;;;;;;7.17;4.47;;;;;;;4.65;49.21;99987.88;5071180;28;20205;-56
2021/12/21 07:03:51;;;;;;;6.60;4.53;;;;;;;4.62;49.54;99986.06;5081766;28;20403;-56
2021/12/21 07:06:19;;;;;;;4.67;4.20;;;;;;;4.66;49.51;99999.81;5111563;28;20277;-56
2021/12/21 07:08:53;;;;;;;5.93;4.70;;;;;;;4.65;49.88;99998.06;5101947;28;20203;-57
2021/12/21 07:11:26;;;;;;;4.93;4.03;;;;;;;4.52;49.77;100005.91;5090973;28;20191;-56
2021/12/21 07:19:24;;;;;;;5.60;4.10;;;;;;;4.65;49.18;100010.78;5111046;28;20178;-57
2021/12/21 07:21:51;;;;;;;4.73;3.87;;;;;;;4.60;50.04;99999.53;5111197;28;20195;-56
2021/12/21 07:24:18;;;;;;;4.20;3.67;;;;;;;4.55;50.29;100008.59;5110793;28;20183;-56
2021/12/21 07:26:45;;;;;;;3.73;3.43;;;;;;;4.48;49.50;100009.09;5111005;28;20311;-57
2021/12/21 07:29:12;;;;;;;5.33;3.67;;;;;;;4.39;49.97;100004.47;5110948;28;20236;-57
2021/12/21 07:31:39;;;;;;;5.57;3.50;;;;;;;4.41;50.40;100010.50;5110412;28;20745;-57
2021/12/21 07:34:06;;;;;;;5.83;3.17;;;;;;;4.44;49.66;100009.75;5110336;28;20519;-57
2021/12/21 07:36:34;;;;;;;5.17;3.40;;;;;;;4.43;49.24;100008.00;5110904;28;20277;-57
2021/12/21 07:39:04;;;;;;;5.80;4.03;;;;;;;4.51;49.29;100014.34;5110820;28;20282;-57
2021/12/21 07:41:31;;;;;;;7.13;3.57;;;;;;;4.59;48.55;100020.66;5110900;28;20197;-57
2021/12/21 07:43:58;;;;;;;4.07;3.53;;;;;;;4.71;48.79;100039.06;5110652;28;20187;-56
2021/12/21 07:46:25;;;;;;;5.97;3.30;;;;;;;4.80;47.89;100018.28;5110582;28;20217;-57
2021/12/21 07:48:53;;;;;;;4.53;3.00;;;;;;;4.91;47.82;100033.25;5110309;28;20277;-56
2021/12/21 07:51:20;;;;;;;5.83;3.40;;;;;;;4.94;47.81;100030.00;5110637;28;20246;-57
2021/12/21 07:53:49;;;;;;;6.20;3.53;;;;;;;4.90;48.05;100036.59;5110335;28;20305;-56
2021/12/21 07:56:17;;;;;;;7.67;4.03;;;;;;;5.01;47.49;100048.16;5110543;28;20186;-56
2021/12/21 07:58:45;;;;;;;6.23;3.30;;;;;;;5.09;46.79;100039.19;5110580;28;20243;-56
2021/12/21 08:01:12;;;;;;;6.47;3.47;;;;;;;4.92;47.64;100026.47;5110368;28;20194;-57
2021/12/21 08:03:39;;;;;;;5.67;3.10;;;;;;;5.02;48.09;100052.47;5110135;28;20201;-57
2021/12/21 08:06:09;;;;;;;4.23;2.90;;;;;;;5.05;47.33;100051.72;5110691;28;20186;-57
2021/12/21 08:08:40;;;;;;;4.23;2.83;;;;;;;5.06;46.30;100061.97;5109127;28;20576;-57
2021/12/21 08:11:14;;;;;;;3.60;3.10;;;;;;;5.09;46.45;100059.56;5069836;28;20574;-57
2021/12/21 08:13:43;;;;;;;3.77;3.20;;;;;;;5.11;47.27;100062.22;5069694;28;20215;-57
2021/12/21 08:16:11;;;;;;;3.83;3.43;;;;;;;5.17;47.42;100063.34;5069640;28;20272;-57
2021/12/21 08:18:39;;;;;;;6.97;3.50;;;;;;;5.14;46.73;100057.22;5091731;28;20259;-57
2021/12/21 08:21:06;;;;;;;6.10;3.57;;;;;;;5.14;45.98;100072.50;5108027;28;20273;-56
2021/12/21 08:23:33;;;;;;;4.57;3.37;;;;;;;5.16;45.77;100076.91;5106700;28;20634;-56
2021/12/21 08:26:00;;;;;;;4.97;3.73;;;;;;;5.19;45.81;100061.72;5111441;28;20204;-56
2021/12/21 08:28:28;;;;;;;6.03;4.00;;;;;;;5.29;45.10;100063.94;5114390;28;20193;-56
2021/12/21 08:30:55;;;;;;;3.77;3.47;;;;;;;5.23;45.24;100061.09;5114031;28;20217;-57
2021/12/21 08:33:22;;;;;;;7.10;4.63;;;;;;;5.27;45.80;100067.22;5114191;28;20728;-57
2021/12/21 08:35:49;;;;;;;6.23;3.67;;;;;;;5.41;45.98;100065.28;5113793;28;20195;-57
2021/12/21 08:38:19;;;;;;;4.73;3.80;;;;;;;5.52;44.53;100059.00;5114360;28;20281;-57
2021/12/21 08:40:49;;;;;;;5.77;3.97;;;;;;;5.55;43.57;100066.78;5114166;28;20190;-57
2021/12/21 08:43:18;;;;;;;3.87;3.57;;;;;;;5.60;44.07;100070.41;5113640;28;20186;-58
2021/12/21 08:45:49;;;;;;;5.80;4.03;;;;;;;5.53;43.39;100071.81;5114208;28;20200;-56
2021/12/21 08:48:16;;;;;;;5.83;3.90;;;;;;;5.62;43.71;100076.44;5114406;28;20191;-55
2021/12/21 08:50:44;;;;;;;5.83;3.57;;;;;;;5.68;42.03;100076.72;5105138;28;20292;-56
2021/12/21 08:53:12;;;;;;;5.53;3.57;;;;;;;5.73;42.29;100082.91;5113921;28;20301;-56
2021/12/21 08:55:40;;;;;;;7.00;3.70;;;;;;;5.75;42.26;100077.06;5114075;28;20630;-56
2021/12/21 08:58:07;;;;;;;4.10;3.50;;;;;;;5.73;42.00;100070.16;5113988;28;20587;-56
2021/12/21 09:00:34;;;;;;;4.37;3.40;;;;;;;5.68;42.16;100079.28;5113839;28;20274;-56
2021/12/21 09:03:03;;;;;;;5.20;3.75;;;;;;;5.72;42.85;100071.81;5113164;28;20416;-56
2021/12/21 09:05:31;;;;;;;4.10;3.60;;;;;;;5.82;42.23;100073.13;5113673;28;20309;-56
2021/12/21 09:07:59;;;;;;;4.13;3.73;;;;;;;5.87;42.73;100079.31;5113622;28;20235;-56
2021/12/21 09:10:28;;;;;;;4.83;3.80;;;;;;;5.92;42.55;100070.19;5113598;28;20584;-57
2021/12/21 09:12:56;;;;;;;6.17;4.73;;;;;;;6.01;42.58;100074.81;5106280;28;20276;-56
2021/12/21 09:15:25;;;;;;;5.57;3.37;;;;;;;5.98;42.43;100075.56;5092904;28;20199;-56
2021/12/21 09:17:52;;;;;;;3.97;2.80;;;;;;;5.97;42.69;100072.94;5093237;28;21089;-56
2021/12/21 09:20:24;;;;;;;4.77;3.37;;;;;;;5.90;43.20;100066.72;5088655;28;20238;-56
2021/12/21 09:22:52;;;;;;;4.73;3.90;;;;;;;5.97;43.44;100067.81;5072596;28;20631;-56
2021/12/21 09:25:19;;;;;;;3.90;3.10;;;;;;;6.13;43.14;100063.44;5072564;28;20194;-56
2021/12/21 09:27:46;;;;;;;5.13;3.10;;;;;;;6.19;43.19;100065.38;5072584;28;20193;-56
2021/12/21 09:30:15;;;;;;;3.87;3.37;;;;;;;6.24;42.99;100053.69;5072544;28;20512;-56
2021/12/21 09:32:43;;;;;;;4.30;3.37;;;;;;;6.24;43.33;100057.13;5072067;28;20227;-56
2021/12/21 09:35:10;;;;;;;6.97;3.03;;;;;;;6.24;43.60;100048.59;5072222;28;20700;-56
2021/12/21 09:37:39;;;;;;;5.83;3.60;;;;;;;6.08;44.38;100048.75;5072335;28;20196;-57
2021/12/21 09:40:08;;;;;;;5.40;3.70;;;;;;;6.08;44.04;100047.09;5072247;28;20283;-57
2021/12/21 09:42:36;;;;;;;3.07;2.70;;;;;;;6.14;42.96;100047.34;5072405;28;20188;-57
2021/12/21 09:45:05;;;;;;;3.73;3.43;;;;;;;6.20;43.86;100062.03;5072226;28;20271;-57
2021/12/21 09:47:33;;;;;;;3.40;3.10;;;;;;;6.20;43.86;100049.28;5072285;28;20279;-56
2021/12/21 09:50:00;;;;;;;3.40;3.10;;;;;;;6.22;42.88;100047.66;5072042;28;20200;-56
2021/12/21 09:52:29;;;;;;;3.63;3.13;;;;;;;6.16;43.69;100061.03;5072177;28;20345;-57
2021/12/21 09:54:59;;;;;;;7.00;4.27;;;;;;;6.26;43.60;100052.94;5072206;28;20219;-57
2021/12/21 09:57:26;;;;;;;5.73;3.40;;;;;;;6.27;42.91;100054.69;5072136;28;20286;-57
2021/12/21 09:59:54;;;;;;;4.50;3.67;;;;;;;6.20;43.39;100047.63;5080714;28;20275;-57
2021/12/21 10:02:26;;;;;;;4.13;3.30;;;;;;;6.27;42.47;100052.16;5091619;28;20204;-57
2021/12/21 10:04:55;;;;;;;6.43;4.68;;;;;;;6.37;42.67;100044.06;5091956;28;20505;-57
2021/12/21 10:07:23;;;;;;;4.60;3.50;;;;;;;6.19;41.82;100010.13;5086497;28;20242;-57
2021/12/21 10:09:53;;;;;;;4.40;3.73;;;;;;;6.28;42.70;100051.34;5071800;28;20246;-57
2021/12/21 10:12:30;;;;;;;6.10;4.13;;;;;;;6.18;42.96;100049.22;5071870;28;20253;-57
2021/12/21 10:15:09;;;;;;;3.53;3.20;;;;;;;6.20;42.13;100047.63;5071926;28;20304;-57
2021/12/21 10:17:37;;;;;;;5.30;3.50;;;;;;;6.32;42.92;100047.22;5071240;28;20283;-56
2021/12/21 10:20:08;;;;;;;4.57;3.80;;;;;;;6.22;41.94;100050.22;5071154;28;20276;-57
2021/12/21 10:22:37;;;;;;;4.33;3.47;;;;;;;6.19;41.95;100048.41;5071317;28;20197;-56
2021/12/21 10:25:08;;;;;;;3.63;3.10;;;;;;;6.27;41.74;100057.25;5071753;28;20213;-56
2021/12/21 10:27:43;;;;;;;3.63;2.77;;;;;;;6.29;40.28;100037.78;5071758;28;20279;-56
2021/12/21 10:30:12;;;;;;;3.13;2.80;;;;;;;6.43;40.63;100034.13;5071563;28;20193;-56
2021/12/21 10:32:51;;;;;;;2.67;2.47;;;;;;;6.47;39.80;100046.22;5070863;28;20674;-56
2021/12/21 10:35:18;;;;;;;4.33;3.00;;;;;;;6.44;40.32;100033.31;5071252;28;20216;-56
2021/12/21 10:37:51;;;;;;;2.83;2.53;;;;;;;6.45;39.67;100031.63;5071217;28;20195;-57
2021/12/21 10:40:24;;;;;;;2.83;2.63;;;;;;;6.43;39.87;100020.47;5071467;28;20210;-56
2021/12/21 10:42:55;;;;;;;3.10;2.80;;;;;;;6.41;40.49;100017.00;5071263;28;20571;-56
2021/12/21 10:45:28;;;;;;;2.73;2.53;;;;;;;6.46;40.29;100021.47;5071256;28;20191;-57
2021/12/21 10:47:56;;;;;;;4.00;2.70;;;;;;;6.43;40.02;100010.25;5070479;28;20291;-56
2021/12/21 10:50:24;;;;;;;3.20;2.90;;;;;;;6.40;39.98;100011.00;5070777;28;20283;-56
2021/12/21 10:52:53;;;;;;;6.27;3.40;;;;;;;6.27;40.04;100049.59;5081480;28;20278;-56
2021/12/21 10:55:27;;;;;;;2.63;2.43;;;;;;;6.05;41.25;100029.09;5091078;28;20242;-56
2021/12/21 10:58:19;;;;;;;3.97;3.07;;;;;;;6.16;40.89;100044.84;5092451;28;20259;-57
2021/12/21 11:00:53;;;;;;;3.03;2.83;;;;;;;6.11;40.37;100031.91;5096239;28;20248;-57
2021/12/21 11:03:31;;;;;;;4.73;3.60;;;;;;;6.18;40.15;100005.00;5111425;28;20697;-57
2021/12/21 11:06:09;;;;;;;5.10;3.60;;;;;;;6.31;39.42;100037.84;5110960;28;20439;-57
2021/12/21 11:08:38;;;;;;;4.57;3.97;;;;;;;6.34;39.85;100020.13;5111440;28;20287;-57
2021/12/21 11:11:10;;;;;;;3.33;3.03;;;;;;;6.37;38.96;100023.66;5111151;28;20187;-57
2021/12/21 11:13:39;;;;;;;5.17;3.00;;;;;;;6.51;38.79;100029.31;5111169;28;20195;-57
2021/12/21 11:16:07;;;;;;;5.60;3.10;;;;;;;6.59;38.50;100027.97;5110965;28;20193;-57
2021/12/21 11:18:37;;;;;;;2.70;2.50;;;;;;;6.60;38.87;100031.38;5111250;28;20198;-55
2021/12/21 11:21:09;;;;;;;2.73;2.37;;;;;;;6.65;37.66;100022.25;5110954;28;20191;-57
2021/12/21 11:23:39;;;;;;;3.93;3.23;;;;;;;6.70;38.22;100033.50;5110669;28;20192;-56
2021/12/21 11:26:09;;;;;;;3.47;3.07;;;;;;;6.67;37.45;100021.50;5110560;28;20195;-56
2021/12/21 11:28:38;;;;;;;3.67;3.17;;;;;;;6.50;37.72;100017.38;5111212;28;20282;-56
2021/12/21 11:31:07;;;;;;;3.40;3.10;;;;;;;6.70;37.99;100018.19;5110845;28;20668;-56
2021/12/21 11:33:43;;;;;;;6.40;3.30;;;;;;;6.77;37.88;100012.50;5110627;28;20654;-56
2021/12/21 11:38:58;;;;;;;3.80;2.60;;;;;;;6.83;37.12;100018.72;5111002;28;20249;-56
2021/12/21 11:41:26;;;;;;;3.30;3.00;;;;;;;6.69;37.02;99994.31;5110486;28;20283;-58
2021/12/21 11:44:02;;;;;;;3.67;2.60;;;;;;;6.82;36.70;100011.88;5110781;28;20726;-57
2021/12/21 11:46:34;;;;;;;4.63;2.90;;;;;;;6.81;36.76;100019.47;5110773;28;20286;-57
2021/12/21 11:49:10;;;;;;;2.90;2.70;;;;;;;6.82;37.17;100011.88;5110372;28;20191;-57
2021/12/21 11:51:37;;;;;;;6.77;3.00;;;;;;;6.98;37.22;100016.75;5109593;28;20274;-57
2021/12/21 11:54:16;;;;;;;3.90;3.03;;;;;;;6.98;36.53;100014.19;5093741;28;20233;-57
2021/12/21 11:56:43;;;;;;;4.03;2.97;;;;;;;6.92;36.36;100013.94;5093000;28;20199;-57
2021/12/21 11:59:11;;;;;;;3.17;2.80;;;;;;;6.81;36.45;100027.97;5109808;28;20184;-56
2021/12/21 12:01:46;;;;;;;4.70;2.93;;;;;;;6.81;37.29;100010.09;5110250;28;20659;-56
2021/12/21 12:04:13;;;;;;;4.50;3.23;;;;;;;6.77;37.92;99999.72;5110649;28;20260;-56
2021/12/21 12:06:46;;;;;;;7.13;2.80;;;;;;;6.71;38.03;100013.13;5110304;28;20197;-56
2021/12/21 12:09:24;;;;;;;4.53;3.20;;;;;;;6.57;38.86;100032.13;5110205;28;20272;-56
2021/12/21 12:11:52;;;;;;;7.17;3.53;;;;;;;6.49;38.81;100030.94;5110057;28;20277;-56
2021/12/21 12:14:22;;;;;;;5.83;3.77;;;;;;;6.34;40.55;100023.56;5109961;28;20220;-56
2021/12/21 12:16:52;;;;;;;3.67;3.33;;;;;;;6.24;40.87;100035.84;5078638;28;20535;-57